createdAt,value
2022-09-26T00:00:43.288Z,15.50
2022-09-26T00:01:43.236Z,14.90
2022-09-26T00:02:43.163Z,14.70
2022-09-26T00:03:43.127Z,15.30
2022-09-26T00:04:43.070Z,15.00
2022-09-26T00:05:43.212Z,15.00
2022-09-26T00:06:42.970Z,14.50
2022-09-26T00:07:42.963Z,14.70
2022-09-26T00:08:43.249Z,15.20
2022-09-26T00:09:42.961Z,12.70
2022-09-26T00:10:42.888Z,14.30
2022-09-26T00:11:42.966Z,15.40
2022-09-26T00:12:42.889Z,15.40
2022-09-26T00:13:42.994Z,15.20
2022-09-26T00:14:42.882Z,15.10
2022-09-26T00:15:42.830Z,14.60
2022-09-26T00:16:44.274Z,14.00
2022-09-26T00:17:42.959Z,13.30
2022-09-26T00:18:43.805Z,13.90
2022-09-26T00:19:44.217Z,12.70
2022-09-26T00:20:42.771Z,13.20
2022-09-26T00:21:42.780Z,13.50
2022-09-26T00:22:44.540Z,12.70
2022-09-26T00:23:42.789Z,13.00
2022-09-26T00:24:42.751Z,12.10
2022-09-26T00:25:42.813Z,12.70
2022-09-26T00:26:44.736Z,11.30
2022-09-26T00:27:44.805Z,11.70
2022-09-26T00:28:42.745Z,11.40
2022-09-26T00:29:42.840Z,11.50
2022-09-26T00:30:42.717Z,11.30
2022-09-26T00:31:48.592Z,11.20
2022-09-26T00:32:42.767Z,11.10
2022-09-26T00:33:49.367Z,11.10
2022-09-26T00:34:43.409Z,10.20
2022-09-26T00:35:42.634Z,10.80
2022-09-26T00:36:45.067Z,10.80
2022-09-26T00:37:42.829Z,10.80
2022-09-26T00:38:42.587Z,10.60
2022-09-26T00:39:42.646Z,10.60
2022-09-26T00:40:43.858Z,9.60
2022-09-26T00:41:43.213Z,9.00
2022-09-26T00:42:43.293Z,9.40
2022-09-26T00:43:42.541Z,8.50
2022-09-26T00:44:42.541Z,8.40
2022-09-26T00:45:42.571Z,8.20
2022-09-26T00:46:42.456Z,9.00
2022-09-26T00:47:42.525Z,8.40
2022-09-26T00:48:43.525Z,7.70
2022-09-26T00:49:42.499Z,7.90
2022-09-26T00:50:42.405Z,7.50
2022-09-26T00:51:43.173Z,7.70
2022-09-26T00:52:42.423Z,7.30
2022-09-26T00:53:59.485Z,7.60
2022-09-26T00:54:42.375Z,7.30
2022-09-26T00:55:43.316Z,6.80
2022-09-26T00:56:42.358Z,7.20
2022-09-26T00:57:43.284Z,6.70
2022-09-26T00:58:42.358Z,7.20
2022-09-26T00:59:42.351Z,7.10
2022-09-26T01:00:42.634Z,8.10
2022-09-26T01:01:42.513Z,6.60
2022-09-26T01:02:42.413Z,6.50
2022-09-26T01:03:42.292Z,7.70
2022-09-26T01:04:42.248Z,7.20
2022-09-26T01:05:42.292Z,6.90
2022-09-26T01:06:42.258Z,7.10
2022-09-26T01:07:42.297Z,7.00
2022-09-26T01:08:42.250Z,6.90
2022-09-26T01:09:42.282Z,7.00
2022-09-26T01:10:42.194Z,7.20
2022-09-26T01:11:42.197Z,7.40
2022-09-26T01:12:42.162Z,7.40
2022-09-26T01:13:42.149Z,7.20
2022-09-26T01:14:42.162Z,7.00
2022-09-26T01:15:42.169Z,7.60
2022-09-26T01:16:42.226Z,7.00
2022-09-26T01:17:42.221Z,7.50
2022-09-26T01:18:42.085Z,7.70
2022-09-26T01:19:44.041Z,7.30
2022-09-26T01:22:45.818Z,8.30
2022-09-26T01:23:47.749Z,8.10
2022-09-26T01:24:47.260Z,8.00
2022-09-26T01:25:46.807Z,9.00
2022-09-26T01:26:47.715Z,8.10
2022-09-26T01:27:46.768Z,7.70
2022-09-26T01:28:47.598Z,8.00
2022-09-26T01:29:46.738Z,8.00
2022-09-26T01:30:48.298Z,8.40
2022-09-26T01:31:47.540Z,8.40
2022-09-26T01:32:47.208Z,8.00
2022-09-26T01:33:46.722Z,7.80
2022-09-26T01:34:46.685Z,8.10
2022-09-26T01:35:46.741Z,8.50
2022-09-26T01:36:46.737Z,9.40
2022-09-26T01:37:46.672Z,9.50
2022-09-26T01:38:47.274Z,8.70
2022-09-26T01:39:46.628Z,9.30
2022-09-26T01:40:46.692Z,9.30
2022-09-26T01:41:46.626Z,9.30
2022-09-26T01:42:46.628Z,9.90
2022-09-26T01:43:46.592Z,9.50
2022-09-26T01:44:48.159Z,9.50
2022-09-26T01:45:47.456Z,9.30
2022-09-26T01:46:46.542Z,10.70
2022-09-26T01:47:49.070Z,9.40
2022-09-26T01:48:46.496Z,9.80
2022-09-26T01:49:48.277Z,10.40
2022-09-26T01:50:47.506Z,11.40
2022-09-26T01:51:46.500Z,11.70
2022-09-26T01:52:46.483Z,12.60
2022-09-26T01:53:46.517Z,10.40
2022-09-26T01:54:46.422Z,11.10
2022-09-26T01:55:46.440Z,12.00
2022-09-26T01:56:46.484Z,11.40
2022-09-26T01:57:46.463Z,10.50
2022-09-26T01:58:46.388Z,11.30
2022-09-26T01:59:46.371Z,11.40
2022-09-26T02:00:46.437Z,11.10
2022-09-26T02:01:46.492Z,12.00
2022-09-26T02:02:48.107Z,11.90
2022-09-26T02:03:46.356Z,12.20
2022-09-26T02:04:46.347Z,13.30
2022-09-26T02:05:46.351Z,12.40
2022-09-26T02:06:46.359Z,11.90
2022-09-26T02:07:46.318Z,11.40
2022-09-26T02:08:46.328Z,11.80
2022-09-26T02:09:47.290Z,12.50
2022-09-26T02:10:46.267Z,11.10
2022-09-26T02:11:46.266Z,11.10
2022-09-26T02:12:46.292Z,10.90
2022-09-26T02:13:46.272Z,10.60
2022-09-26T02:14:46.212Z,10.80
2022-09-26T02:15:46.187Z,9.80
2022-09-26T02:16:47.026Z,10.30
2022-09-26T02:17:46.183Z,10.40
2022-09-26T02:18:46.182Z,10.80
2022-09-26T02:19:46.778Z,11.10
2022-09-26T02:20:46.148Z,10.50
2022-09-26T02:21:46.145Z,10.20
2022-09-26T02:22:46.163Z,10.50
2022-09-26T02:23:47.780Z,10.80
2022-09-26T02:24:46.108Z,10.30
2022-09-26T02:25:46.113Z,10.20
2022-09-26T02:26:46.092Z,10.00
2022-09-26T02:27:46.044Z,10.40
2022-09-26T02:28:46.090Z,10.40
2022-09-26T02:29:46.066Z,11.30
2022-09-26T02:30:46.063Z,10.90
2022-09-26T02:31:46.089Z,11.60
2022-09-26T02:32:46.930Z,12.00
2022-09-26T02:33:46.011Z,12.40
2022-09-26T02:34:46.001Z,12.00
2022-09-26T02:35:46.947Z,11.30
2022-09-26T02:36:45.995Z,11.50
2022-09-26T02:37:45.962Z,11.80
2022-09-26T02:38:45.988Z,12.10
2022-09-26T02:39:45.909Z,12.30
2022-09-26T02:40:46.838Z,11.90
2022-09-26T02:41:45.925Z,11.20
2022-09-26T02:42:46.596Z,11.70
2022-09-26T02:43:45.943Z,12.10
2022-09-26T02:44:46.760Z,12.50
2022-09-26T02:45:45.949Z,11.80
2022-09-26T02:46:45.835Z,12.10
2022-09-26T02:47:45.811Z,11.90
2022-09-26T02:48:45.849Z,11.30
2022-09-26T02:49:45.818Z,12.70
2022-09-26T02:50:46.748Z,12.40
2022-09-26T02:51:45.808Z,12.80
2022-09-26T02:52:46.558Z,12.80
2022-09-26T02:53:46.861Z,12.20
2022-09-26T02:54:45.804Z,12.40
2022-09-26T02:55:48.171Z,11.90
2022-09-26T02:56:45.722Z,12.10
2022-09-26T02:57:46.245Z,12.00
2022-09-26T02:58:45.730Z,12.30
2022-09-26T02:59:45.718Z,12.70
2022-09-26T03:00:45.779Z,13.20
2022-09-26T03:01:45.753Z,12.40
2022-09-26T03:02:46.632Z,13.40
2022-09-26T03:03:46.465Z,12.70
2022-09-26T03:04:48.328Z,12.50
2022-09-26T03:05:46.288Z,12.20
2022-09-26T03:06:48.259Z,13.30
2022-09-26T03:07:45.605Z,12.70
2022-09-26T03:08:45.605Z,12.20
2022-09-26T03:09:45.594Z,12.00
2022-09-26T03:10:45.535Z,13.00
2022-09-26T03:11:45.570Z,12.50
2022-09-26T03:12:45.553Z,13.00
2022-09-26T03:13:45.534Z,12.80
2022-09-26T03:14:46.293Z,15.10
2022-09-26T03:15:45.565Z,15.10
2022-09-26T03:16:46.301Z,13.40
2022-09-26T03:17:45.548Z,13.30
2022-09-26T03:18:46.406Z,14.00
2022-09-26T03:19:45.502Z,15.00
2022-09-26T03:20:46.249Z,15.00
2022-09-26T03:21:45.467Z,15.30
2022-09-26T03:22:45.498Z,14.90
2022-09-26T03:24:16.210Z,13.80
2022-09-26T03:24:45.413Z,14.90
2022-09-26T03:25:45.455Z,14.00
2022-09-26T03:26:46.162Z,15.80
2022-09-26T03:27:45.389Z,14.60
2022-09-26T03:28:45.398Z,15.20
2022-09-26T03:29:45.413Z,14.50
2022-09-26T03:30:45.373Z,14.40
2022-09-26T03:31:45.646Z,14.30
2022-09-26T03:32:45.306Z,14.30
2022-09-26T03:33:45.281Z,15.00
2022-09-26T03:34:45.328Z,15.50
2022-09-26T03:35:45.276Z,15.80
2022-09-26T03:36:45.345Z,16.00
2022-09-26T03:37:45.269Z,15.60
2022-09-26T03:38:45.249Z,15.40
2022-09-26T03:39:45.237Z,16.50
2022-09-26T03:40:45.862Z,15.30
2022-09-26T03:41:45.274Z,16.10
2022-09-26T03:42:45.811Z,16.20
2022-09-26T03:43:46.409Z,16.30
2022-09-26T03:44:45.199Z,16.40
2022-09-26T03:45:45.277Z,15.80
2022-09-26T03:46:45.184Z,16.70
2022-09-26T03:47:45.160Z,16.00
2022-09-26T03:48:45.132Z,15.90
2022-09-26T03:49:45.172Z,16.20
2022-09-26T03:50:45.171Z,16.30
2022-09-26T03:51:45.087Z,15.60
2022-09-26T03:52:45.054Z,16.20
2022-09-26T03:53:45.083Z,16.90
2022-09-26T03:54:46.009Z,16.60
2022-09-26T03:55:45.074Z,16.30
2022-09-26T03:56:45.095Z,16.20
2022-09-26T03:57:45.028Z,16.40
2022-09-26T03:58:44.984Z,18.10
2022-09-26T03:59:45.028Z,17.70
2022-09-26T04:00:45.870Z,17.60
2022-09-26T04:01:45.005Z,18.30
2022-09-26T04:02:45.028Z,18.10
2022-09-26T04:03:49.982Z,19.30
2022-09-26T04:04:44.976Z,19.30
2022-09-26T04:05:45.309Z,19.40
2022-09-26T04:06:45.885Z,20.60
2022-09-26T04:07:44.896Z,19.60
2022-09-26T04:28:13.848Z,17.60
2022-09-26T04:28:51.550Z,16.60
2022-09-26T04:29:51.502Z,16.70
2022-09-26T04:30:51.477Z,17.00
2022-09-26T04:31:51.629Z,17.30
2022-09-26T04:32:51.465Z,17.60
2022-09-26T04:33:51.494Z,16.80
2022-09-26T04:34:52.292Z,17.00
2022-09-26T04:35:51.482Z,16.60
2022-09-26T04:36:54.338Z,16.40
2022-09-26T04:37:51.436Z,16.90
2022-09-26T04:38:51.404Z,15.70
2022-09-26T04:39:51.465Z,18.50
2022-09-26T04:40:52.274Z,17.10
2022-09-26T04:41:51.411Z,17.90
2022-09-26T04:42:51.384Z,18.10
2022-09-26T04:43:51.372Z,17.60
2022-09-26T04:44:53.325Z,17.40
2022-09-26T04:45:52.239Z,17.10
2022-09-26T04:46:51.361Z,16.10
2022-09-26T04:47:51.294Z,16.00
2022-09-26T04:48:51.319Z,15.60
2022-09-26T04:49:52.051Z,16.40
2022-09-26T04:50:51.294Z,15.80
2022-09-26T04:51:51.325Z,14.80
2022-09-26T04:52:52.015Z,15.00
2022-09-26T04:53:51.274Z,14.90
2022-09-26T04:54:51.253Z,14.60
2022-09-26T04:55:51.253Z,14.60
2022-09-26T04:56:51.249Z,15.00
2022-09-26T04:57:51.454Z,14.00
2022-09-26T04:58:51.190Z,14.00
2022-09-26T04:59:51.194Z,14.10
2022-09-26T05:00:51.259Z,14.50
2022-09-26T05:01:51.232Z,14.80
2022-09-26T05:02:52.793Z,15.30
2022-09-26T05:03:53.003Z,15.60
2022-09-26T05:04:51.105Z,17.20
2022-09-26T05:05:51.747Z,16.00
2022-09-26T05:06:51.098Z,17.40
2022-09-26T05:07:51.074Z,19.10
2022-09-26T05:08:51.844Z,17.60
2022-09-26T05:09:51.062Z,18.30
2022-09-26T05:10:51.023Z,19.20
2022-09-26T05:11:51.018Z,18.90
2022-09-26T05:12:51.029Z,20.30
2022-09-26T05:13:53.770Z,21.40
2022-09-26T05:14:50.997Z,19.40
2022-09-26T05:15:51.037Z,19.60
2022-09-26T05:16:50.990Z,20.60
2022-09-26T05:17:52.923Z,20.00
2022-09-26T05:18:50.977Z,21.30
2022-09-26T05:19:50.925Z,21.00
2022-09-26T05:20:51.867Z,20.40
2022-09-26T05:21:50.933Z,21.00
2022-09-26T05:22:50.946Z,21.30
2022-09-26T05:23:50.906Z,20.30
2022-09-26T05:24:52.823Z,19.40
2022-09-26T05:25:50.872Z,18.40
2022-09-26T05:26:50.819Z,17.60
2022-09-26T05:27:50.810Z,18.00
2022-09-26T05:28:50.846Z,17.30
2022-09-26T05:29:50.785Z,17.10
2022-09-26T05:30:50.810Z,15.70
2022-09-26T05:31:50.832Z,14.10
2022-09-26T05:32:50.838Z,14.50
2022-09-26T05:33:50.777Z,15.10
2022-09-26T05:34:51.940Z,13.80
2022-09-26T05:35:51.502Z,13.40
2022-09-26T05:36:50.723Z,13.80
2022-09-26T05:37:50.765Z,13.70
2022-09-26T05:38:50.730Z,13.40
2022-09-26T05:39:51.457Z,12.50
2022-09-26T05:40:50.842Z,12.40
2022-09-26T05:41:50.689Z,12.80
2022-09-26T05:42:50.701Z,11.80
2022-09-26T05:43:50.653Z,12.60
2022-09-26T05:44:51.187Z,12.30
2022-09-26T05:45:50.694Z,12.00
2022-09-26T05:46:51.654Z,11.60
2022-09-26T05:47:50.658Z,11.10
2022-09-26T05:48:50.610Z,12.30
2022-09-26T05:49:51.303Z,11.80
2022-09-26T05:50:50.574Z,11.20
2022-09-26T05:51:59.581Z,11.70
2022-09-26T05:52:51.155Z,11.00
2022-09-26T05:53:50.552Z,11.60
2022-09-26T05:54:51.192Z,11.20
2022-09-26T05:55:50.541Z,10.40
2022-09-26T05:56:50.478Z,11.40
2022-09-26T05:57:50.551Z,10.80
2022-09-26T05:58:50.486Z,11.10
2022-09-26T05:59:50.501Z,10.80
2022-09-26T06:00:50.556Z,10.70
2022-09-26T06:01:50.503Z,10.00
2022-09-26T06:02:51.196Z,10.40
2022-09-26T06:03:50.433Z,10.70
2022-09-26T06:04:50.442Z,10.20
2022-09-26T06:05:52.578Z,9.60
2022-09-26T08:17:03.294Z,4.50
2022-09-26T08:17:42.843Z,4.40
2022-09-26T08:18:42.786Z,4.20
2022-09-26T08:19:42.803Z,4.20
2022-09-26T08:20:42.766Z,4.20
2022-09-26T09:59:24.217Z,2.30
2022-09-26T10:00:24.885Z,2.20
2022-09-26T10:01:25.547Z,2.00
2022-09-26T10:02:24.872Z,2.50
2022-09-26T10:07:38.711Z,2.40
2022-09-26T10:08:05.001Z,2.30
2022-09-26T10:09:36.473Z,2.70
2022-09-26T10:10:04.979Z,2.70
2022-09-26T10:11:04.988Z,2.40
2022-09-26T10:36:45.762Z,3.10
2022-09-26T10:37:42.357Z,3.30
2022-09-26T10:38:42.325Z,4.20
2022-09-26T11:09:38.197Z,5.00
2022-09-26T11:10:37.911Z,4.90
2022-09-26T11:11:37.837Z,4.70
2022-09-26T11:12:37.428Z,5.10
2022-09-26T11:13:37.431Z,5.10
2022-09-26T11:14:36.752Z,5.00
2022-09-26T11:15:38.308Z,4.70
2022-09-26T11:17:58.599Z,5.60
2022-09-26T11:18:59.577Z,5.60
2022-09-26T11:19:59.575Z,5.80
2022-09-26T11:21:00.261Z,5.20
2022-09-26T11:22:03.203Z,6.00
2022-09-26T11:22:59.569Z,6.00
2022-09-26T11:23:59.506Z,5.40
2022-09-26T11:24:59.548Z,5.70
2022-09-26T11:25:59.526Z,5.50
2022-09-26T11:27:00.306Z,5.30
2022-09-26T11:27:59.494Z,6.40
2022-09-26T11:28:59.549Z,7.10
2022-09-26T11:29:59.493Z,7.20
2022-09-26T11:31:02.676Z,6.20
2022-09-26T11:32:00.551Z,6.00
2022-09-26T11:32:59.423Z,6.30
2022-09-26T11:33:59.423Z,5.90
2022-09-26T11:34:59.439Z,5.80
2022-09-26T11:35:59.389Z,6.50
2022-09-26T11:36:59.423Z,6.10
2022-09-26T11:37:59.347Z,5.70
2022-09-26T11:38:59.379Z,5.40
2022-09-26T11:40:00.336Z,5.30
2022-09-26T11:40:59.456Z,5.30
2022-09-26T11:41:59.344Z,4.80
2022-09-26T11:42:59.345Z,4.90
2022-09-26T11:43:59.818Z,5.20
2022-09-26T11:44:59.325Z,4.50
2022-09-26T11:45:59.355Z,4.80
2022-09-26T11:46:59.301Z,5.00
2022-09-26T11:48:01.396Z,4.80
2022-09-26T11:49:00.014Z,4.70
2022-09-26T11:49:59.249Z,4.40
2022-09-26T11:50:59.261Z,4.60
2022-09-26T11:51:59.235Z,5.60
2022-09-26T11:52:59.225Z,5.50
2022-09-26T11:53:59.187Z,5.00
2022-09-26T11:54:59.202Z,5.00
2022-09-26T11:55:59.214Z,4.10
2022-09-26T11:56:59.172Z,5.30
2022-09-26T11:58:03.217Z,5.80
2022-09-26T11:58:59.945Z,4.90
2022-09-26T11:59:59.123Z,3.80
2022-09-26T12:01:03.796Z,4.30
2022-09-26T12:01:59.175Z,6.80
2022-09-26T12:03:00.404Z,4.10
2022-09-26T12:04:05.418Z,4.30
2022-09-26T12:04:59.053Z,4.00
2022-09-26T12:05:59.883Z,4.30
2022-09-26T12:06:59.049Z,4.30
2022-09-26T12:07:59.058Z,4.10
2022-09-26T12:08:59.076Z,4.00
2022-09-26T12:09:59.754Z,4.50
2022-09-26T12:11:00.006Z,4.60
2022-09-26T12:11:59.091Z,4.60
2022-09-26T12:12:59.733Z,3.90
2022-09-26T12:13:59.111Z,3.60
2022-09-26T12:14:59.002Z,3.20
2022-09-26T12:16:01.383Z,3.30
2022-09-26T12:16:59.842Z,3.40
2022-09-26T12:18:02.002Z,3.60
2022-09-26T12:18:59.531Z,3.80
2022-09-26T12:20:01.196Z,3.60
2022-09-26T12:20:58.910Z,4.30
2022-09-26T12:21:58.846Z,3.60
2022-09-26T12:22:59.217Z,3.30
2022-09-26T12:23:59.491Z,3.70
2022-09-26T12:24:58.885Z,3.20
2022-09-26T12:25:58.870Z,3.00
2022-09-26T12:26:58.855Z,3.10
2022-09-26T12:28:04.062Z,3.20
2022-09-26T12:28:59.564Z,3.10
2022-09-26T12:29:58.819Z,3.50
2022-09-26T12:31:00.143Z,3.70
2022-09-26T12:31:59.932Z,4.40
2022-09-26T12:32:58.806Z,4.20
2022-09-26T12:33:59.479Z,4.00
2022-09-26T12:34:58.754Z,4.60
2022-09-26T12:35:58.760Z,4.60
2022-09-26T12:37:01.516Z,3.60
2022-09-26T12:37:58.704Z,4.10
2022-09-26T12:38:58.723Z,3.30
2022-09-26T12:39:59.538Z,3.70
2022-09-26T12:40:58.752Z,3.20
2022-09-26T12:41:58.628Z,3.00
2022-09-26T12:42:58.613Z,2.80
2022-09-26T12:43:58.710Z,3.10
2022-09-26T12:44:58.615Z,2.50
2022-09-26T12:45:58.669Z,2.50
2022-09-26T12:47:00.920Z,2.70
2022-09-26T12:47:58.554Z,3.60
2022-09-26T12:48:59.483Z,3.00
2022-09-26T12:49:58.597Z,2.40
2022-09-26T12:50:58.556Z,2.40
2022-09-26T12:51:58.589Z,2.60
2022-09-26T12:52:58.499Z,1.90
2022-09-26T12:53:58.480Z,2.20
2022-09-26T12:54:58.541Z,2.10
2022-09-26T12:55:58.514Z,2.30
2022-09-26T12:56:58.552Z,1.90
2022-09-26T12:57:58.505Z,3.00
2022-09-26T12:58:58.440Z,2.10
2022-09-26T12:59:59.146Z,1.90
2022-09-26T13:00:59.546Z,1.70
2022-09-26T13:01:59.227Z,1.70
2022-09-26T13:02:58.484Z,2.00
2022-09-26T13:03:58.411Z,1.40
2022-09-26T13:04:59.279Z,2.10
2022-09-26T13:05:58.376Z,1.70
2022-09-26T13:07:17.662Z,1.80
2022-09-26T13:07:58.499Z,1.50
2022-09-26T13:08:59.009Z,1.80
2022-09-26T13:09:58.344Z,1.50
2022-09-26T13:10:58.845Z,1.70
2022-09-26T13:12:00.435Z,1.90
2022-09-26T13:12:58.335Z,1.70
2022-09-26T13:13:57.850Z,1.70
2022-09-26T13:14:58.257Z,1.80
2022-09-26T13:15:59.063Z,1.50
2022-09-26T13:16:58.279Z,1.70
2022-09-26T13:17:58.225Z,1.70
2022-09-26T13:18:59.967Z,1.60
2022-09-26T13:19:58.386Z,1.40
2022-09-26T13:20:58.202Z,1.60
2022-09-26T13:21:58.208Z,1.40
2022-09-26T13:22:58.198Z,1.70
2022-09-26T13:23:58.148Z,1.40
2022-09-26T13:24:58.148Z,1.40
2022-09-26T13:25:58.153Z,1.30
2022-09-26T13:26:58.099Z,1.80
2022-09-26T13:27:58.138Z,1.70
2022-09-26T13:29:16.341Z,1.30
2022-09-26T13:29:58.158Z,1.70
2022-09-26T13:30:58.222Z,1.60
2022-09-26T13:31:58.041Z,1.50
2022-09-26T13:32:58.073Z,1.90
2022-09-26T13:33:58.048Z,2.10
2022-09-26T13:34:58.033Z,1.80
2022-09-26T13:35:58.002Z,1.80
2022-09-26T13:36:58.023Z,2.00
2022-09-26T13:38:02.104Z,2.60
2022-09-26T13:38:57.981Z,2.80
2022-09-26T13:39:57.999Z,3.00
2022-09-26T13:40:58.055Z,2.60
2022-09-26T13:41:57.935Z,2.50
2022-09-26T13:43:02.682Z,3.80
2022-09-26T13:43:57.961Z,2.70
2022-09-26T13:44:57.963Z,3.20
2022-09-26T13:45:57.987Z,3.00
2022-09-26T13:46:57.948Z,2.70
2022-09-26T13:47:57.858Z,2.90
2022-09-26T13:48:57.850Z,2.70
2022-09-26T13:49:57.863Z,3.20
2022-09-26T13:50:57.861Z,2.20
2022-09-26T13:51:58.578Z,2.80
2022-09-26T13:52:58.353Z,2.50
2022-09-26T13:53:57.874Z,2.70
2022-09-26T13:54:57.818Z,2.90
2022-09-26T13:55:57.844Z,3.20
2022-09-26T13:56:57.790Z,3.20
2022-09-26T13:57:57.779Z,3.20
2022-09-26T13:58:57.732Z,3.50
2022-09-26T13:59:57.784Z,3.50
2022-09-26T14:00:57.784Z,4.60
2022-09-26T14:01:57.725Z,3.20
2022-09-26T14:03:00.220Z,2.70
2022-09-26T14:03:58.330Z,3.20
2022-09-26T14:04:57.664Z,3.50
2022-09-26T14:05:57.683Z,4.10
2022-09-26T14:06:57.697Z,3.00
2022-09-26T14:07:57.642Z,4.40
2022-09-26T14:08:57.649Z,4.90
2022-09-26T14:09:57.632Z,3.70
2022-09-26T14:10:57.648Z,4.20
2022-09-26T14:11:57.603Z,4.80
2022-09-26T14:12:57.602Z,6.00
2022-09-26T14:13:57.561Z,7.10
2022-09-26T14:14:57.560Z,6.10
2022-09-26T14:15:57.601Z,6.20
2022-09-26T14:16:57.535Z,8.80
2022-09-26T14:17:58.256Z,7.40
2022-09-26T14:18:57.560Z,6.50
2022-09-26T14:19:57.526Z,6.30
2022-09-26T14:20:57.516Z,5.80
2022-09-26T14:21:57.528Z,6.20
2022-09-26T14:22:57.502Z,5.00
2022-09-26T14:23:57.469Z,5.60
2022-09-26T14:24:57.463Z,5.70
2022-09-26T14:25:57.460Z,6.10
2022-09-26T14:26:57.443Z,7.60
2022-09-26T14:27:57.447Z,8.50
2022-09-26T14:28:57.387Z,8.00
2022-09-26T14:29:57.353Z,8.70
2022-09-26T14:30:57.502Z,7.00
2022-09-26T14:31:57.339Z,6.60
2022-09-26T14:32:57.431Z,6.80
2022-09-26T14:33:59.555Z,5.20
2022-09-26T14:34:57.456Z,4.10
2022-09-26T14:35:57.375Z,4.30
2022-09-26T14:36:57.353Z,3.80
2022-09-26T14:37:57.333Z,4.10
2022-09-26T14:38:57.290Z,4.20
2022-09-26T14:39:57.323Z,4.80
2022-09-26T14:40:57.379Z,4.10
2022-09-26T14:41:57.273Z,5.30
2022-09-26T14:42:57.245Z,5.20
2022-09-26T14:43:57.236Z,5.00
2022-09-26T14:44:57.221Z,5.30
2022-09-26T14:45:57.310Z,5.10
2022-09-26T14:46:57.236Z,6.20
2022-09-26T14:47:57.179Z,5.20
2022-09-26T14:48:57.147Z,6.00
2022-09-26T14:49:57.119Z,13.90
2022-09-26T14:50:57.169Z,7.60
2022-09-26T14:51:57.168Z,6.30
2022-09-26T14:52:57.130Z,7.20
2022-09-26T14:53:57.104Z,6.80
2022-09-26T14:54:57.057Z,6.00
2022-09-26T14:55:57.067Z,5.40
2022-09-26T14:56:57.096Z,4.80
2022-09-26T14:57:57.047Z,5.20
2022-09-26T14:58:57.844Z,4.90
2022-09-26T14:59:57.038Z,6.90
2022-09-26T15:00:57.036Z,5.10
2022-09-26T15:01:57.054Z,5.30
2022-09-26T15:03:00.878Z,5.80
2022-09-26T15:03:56.996Z,5.70
2022-09-26T15:04:56.996Z,5.20
2022-09-26T15:05:57.019Z,5.20
2022-09-26T15:06:57.021Z,5.70
2022-09-26T15:07:56.951Z,5.40
2022-09-26T15:08:56.945Z,5.80
2022-09-26T15:09:56.916Z,6.10
2022-09-26T15:10:56.906Z,5.80
2022-09-26T15:11:56.923Z,6.00
2022-09-26T15:12:56.878Z,6.20
2022-09-26T15:13:56.837Z,6.30
2022-09-26T15:15:01.169Z,6.30
2022-09-26T15:15:56.903Z,6.80
2022-09-26T15:16:56.849Z,10.10
2022-09-26T15:17:56.844Z,8.70
2022-09-26T15:18:56.850Z,8.40
2022-09-26T15:19:56.836Z,6.90
2022-09-26T15:21:00.465Z,6.80
2022-09-26T15:21:56.868Z,6.30
2022-09-26T15:22:56.785Z,5.70
2022-09-26T15:23:56.752Z,6.00
2022-09-26T15:24:56.747Z,5.80
2022-09-26T15:25:56.718Z,5.50
2022-09-26T15:26:56.707Z,6.50
2022-09-26T15:27:56.895Z,5.90
2022-09-26T15:28:57.393Z,5.70
2022-09-26T15:29:56.706Z,5.60
2022-09-26T15:30:56.696Z,5.50
2022-09-26T15:31:56.700Z,5.90
2022-09-26T15:32:56.649Z,5.90
2022-09-26T15:33:56.613Z,6.10
2022-09-26T15:34:56.647Z,6.20
2022-09-26T15:35:56.620Z,5.80
2022-09-26T15:36:56.545Z,5.60
2022-09-26T15:37:56.586Z,6.20
2022-09-26T15:38:56.594Z,7.20
2022-09-26T15:39:56.897Z,6.20
2022-09-26T15:40:56.637Z,6.50
2022-09-26T15:41:56.555Z,7.20
2022-09-26T15:42:56.533Z,7.60
2022-09-26T15:43:56.560Z,8.20
2022-09-26T15:44:57.407Z,7.40
2022-09-26T15:45:56.595Z,8.10
2022-09-26T15:46:56.576Z,7.60
2022-09-26T15:47:56.501Z,7.90
2022-09-26T15:48:56.455Z,8.30
2022-09-26T15:49:56.487Z,8.10
2022-09-26T15:50:58.037Z,8.30
2022-09-26T15:51:56.453Z,8.30
2022-09-26T15:52:56.396Z,8.50
2022-09-26T15:53:56.395Z,10.40
2022-09-26T15:54:56.408Z,10.90
2022-09-26T15:55:56.442Z,10.50
2022-09-26T15:56:57.136Z,10.70
2022-09-26T15:57:56.413Z,9.30
2022-09-26T15:58:56.351Z,11.00
2022-09-26T15:59:56.401Z,11.20
2022-09-26T16:00:56.333Z,11.60
2022-09-26T16:01:56.398Z,13.70
2022-09-26T16:02:57.157Z,12.40
2022-09-26T16:03:56.329Z,10.60
2022-09-26T16:04:56.298Z,10.30
2022-09-26T16:05:56.299Z,11.60
2022-09-26T16:06:56.280Z,10.80
2022-09-26T16:07:56.275Z,11.20
2022-09-26T16:08:56.274Z,11.10
2022-09-26T16:09:56.901Z,11.20
2022-09-26T16:10:56.889Z,10.90
2022-09-26T16:11:56.207Z,11.40
2022-09-26T16:12:56.245Z,11.10
2022-09-26T16:13:56.189Z,12.60
2022-09-26T16:14:56.179Z,12.70
2022-09-26T16:15:56.310Z,11.80
2022-09-26T16:16:56.188Z,12.40
2022-09-26T16:17:56.299Z,11.90
2022-09-26T16:18:56.179Z,12.50
2022-09-26T16:19:56.822Z,12.80
2022-09-26T16:20:56.132Z,15.10
2022-09-26T16:21:56.136Z,15.80
2022-09-26T16:23:00.317Z,16.30
2022-09-26T16:23:56.841Z,15.50
2022-09-26T16:24:56.045Z,16.30
2022-09-26T16:25:56.030Z,15.90
2022-09-26T16:26:56.073Z,15.20
2022-09-26T16:27:56.060Z,14.20
2022-09-26T16:28:56.715Z,14.00
2022-09-26T16:29:56.127Z,14.70
2022-09-26T16:30:56.028Z,13.20
2022-09-26T16:31:55.966Z,12.90
2022-09-26T16:32:55.991Z,13.80
2022-09-26T16:33:56.007Z,13.40
2022-09-26T16:34:55.972Z,13.60
2022-09-26T16:35:56.658Z,13.70
2022-09-26T16:36:55.966Z,13.30
2022-09-26T16:37:55.895Z,13.50
2022-09-26T16:38:55.947Z,15.30
2022-09-26T16:39:56.194Z,17.20
2022-09-26T16:40:56.779Z,15.70
2022-09-26T16:42:01.776Z,13.80
2022-09-26T16:42:55.846Z,13.70
2022-09-26T16:43:55.825Z,14.80
2022-09-26T16:44:55.882Z,14.00
2022-09-26T16:45:55.874Z,13.20
2022-09-26T16:46:55.812Z,13.30
2022-09-26T16:47:55.796Z,13.10
2022-09-26T16:48:57.441Z,15.90
2022-09-26T16:49:55.773Z,14.30
2022-09-26T16:50:55.755Z,18.80
2022-09-26T16:51:55.737Z,15.20
2022-09-26T16:52:56.782Z,15.10
2022-09-26T16:53:56.266Z,15.00
2022-09-26T16:54:55.728Z,16.10
2022-09-26T16:55:55.758Z,13.90
2022-09-26T16:56:56.531Z,14.00
2022-09-26T16:57:55.714Z,14.80
2022-09-26T16:58:55.694Z,14.70
2022-09-26T16:59:55.697Z,26.10
2022-09-26T17:00:56.288Z,39.50
2022-09-26T17:01:55.737Z,19.00
2022-09-26T17:02:55.709Z,15.00
2022-09-26T17:03:55.618Z,14.70
2022-09-26T17:04:55.596Z,11.30
2022-09-26T17:05:55.584Z,9.40
2022-09-26T17:06:55.609Z,10.00
2022-09-26T17:07:55.598Z,9.70
2022-09-26T17:08:56.760Z,10.20
2022-09-26T17:09:56.602Z,10.50
2022-09-26T17:10:55.558Z,10.80
2022-09-26T17:11:56.535Z,10.00
2022-09-26T17:12:55.538Z,10.50
2022-09-26T17:13:55.517Z,10.50
2022-09-26T17:14:56.457Z,9.70
2022-09-26T17:15:56.742Z,9.30
2022-09-26T17:16:55.456Z,9.60
2022-09-26T17:17:55.482Z,10.30
2022-09-26T17:18:56.176Z,10.40
2022-09-26T17:19:59.423Z,10.70
2022-09-26T17:20:57.798Z,9.00
2022-09-26T17:21:57.440Z,9.60
2022-09-26T17:22:55.463Z,10.70
2022-09-26T17:23:55.362Z,8.70
2022-09-26T17:24:55.374Z,9.90
2022-09-26T17:25:57.732Z,12.20
2022-09-26T17:26:57.557Z,10.30
2022-09-26T17:27:55.375Z,9.10
2022-09-26T17:28:55.902Z,9.50
2022-09-26T17:29:55.299Z,8.80
2022-09-26T17:30:55.309Z,8.60
2022-09-26T17:31:55.329Z,8.30
2022-09-26T17:32:55.299Z,9.20
2022-09-26T17:33:55.303Z,8.40
2022-09-26T17:34:55.262Z,9.00
2022-09-26T17:35:55.243Z,9.00
2022-09-26T17:36:55.990Z,8.90
2022-09-26T17:37:56.077Z,8.20
2022-09-26T17:38:57.071Z,8.20
2022-09-26T17:39:56.022Z,8.40
2022-09-26T17:40:56.336Z,7.90
2022-09-26T17:41:55.178Z,8.40
2022-09-26T17:42:55.389Z,8.20
2022-09-26T17:43:55.199Z,8.20
2022-09-26T17:44:55.162Z,8.30
2022-09-26T17:45:55.227Z,8.20
2022-09-26T17:46:55.191Z,8.90
2022-09-26T17:47:55.125Z,10.20
2022-09-26T17:48:56.071Z,16.60
2022-09-26T17:49:55.112Z,14.60
2022-09-26T17:50:55.752Z,28.60
2022-09-26T17:51:55.177Z,28.50
2022-09-26T17:52:55.090Z,19.90
2022-09-26T17:53:55.041Z,15.70
2022-09-26T17:54:55.043Z,10.80
2022-09-26T17:55:55.726Z,11.10
2022-09-26T17:56:55.030Z,9.70
2022-09-26T17:57:57.902Z,10.40
2022-09-26T17:58:55.957Z,10.10
2022-09-26T17:59:54.983Z,11.90
2022-09-26T18:00:55.661Z,10.40
2022-09-26T18:01:55.066Z,14.20
2022-09-26T18:02:54.960Z,19.70
2022-09-26T18:03:54.944Z,18.10
2022-09-26T18:04:54.971Z,13.40
2022-09-26T18:05:55.873Z,11.30
2022-09-26T18:06:54.885Z,11.80
2022-09-26T18:07:54.878Z,11.90
2022-09-26T18:08:54.920Z,12.10
2022-09-26T18:09:54.840Z,13.20
2022-09-26T18:10:54.850Z,13.70
2022-09-26T18:11:54.895Z,13.50
2022-09-26T18:12:54.869Z,12.60
2022-09-26T18:13:56.781Z,11.60